sensor_id;sensor_type;location;lat;lon;timestamp;P1;durP1;ratioP1;P2;durP2;ratioP2
28086;SDS011;15392;48.912;8.380;2023-05-29T00:00:18;1.20;;;1.20;;
28086;SDS011;15392;48.912;8.380;2023-05-29T00:02:45;1.23;;;1.23;;
28086;SDS011;15392;48.912;8.380;2023-05-29T00:05:12;1.30;;;1.30;;
28086;SDS011;15392;48.912;8.380;2023-05-29T00:07:39;1.35;;;1.35;;
28086;SDS011;15392;48.912;8.380;2023-05-29T00:10:06;1.50;;;1.40;;
28086;SDS011;15392;48.912;8.380;2023-05-29T00:12:35;1.23;;;1.23;;
28086;SDS011;15392;48.912;8.380;2023-05-29T00:15:01;1.40;;;1.30;;
28086;SDS011;15392;48.912;8.380;2023-05-29T00:20:00;1.15;;;1.15;;
28086;SDS011;15392;48.912;8.380;2023-05-29T00:22:27;1.10;;;1.10;;
28086;SDS011;15392;48.912;8.380;2023-05-29T00:24:53;1.67;;;1.58;;
28086;SDS011;15392;48.912;8.380;2023-05-29T00:27:19;1.38;;;1.33;;
28086;SDS011;15392;48.912;8.380;2023-05-29T00:29:45;1.50;;;1.40;;
28086;SDS011;15392;48.912;8.380;2023-05-29T00:32:11;1.50;;;1.45;;
28086;SDS011;15392;48.912;8.380;2023-05-29T00:34:37;1.58;;;1.50;;
28086;SDS011;15392;48.912;8.380;2023-05-29T00:37:03;1.55;;;1.50;;
28086;SDS011;15392;48.912;8.380;2023-05-29T00:39:29;1.70;;;1.60;;
28086;SDS011;15392;48.912;8.380;2023-05-29T00:41:54;1.70;;;1.60;;
28086;SDS011;15392;48.912;8.380;2023-05-29T00:44:21;1.50;;;1.40;;
28086;SDS011;15392;48.912;8.380;2023-05-29T00:46:47;1.40;;;1.40;;
28086;SDS011;15392;48.912;8.380;2023-05-29T00:49:15;1.88;;;1.77;;
28086;SDS011;15392;48.912;8.380;2023-05-29T00:51:41;1.50;;;1.50;;
28086;SDS011;15392;48.912;8.380;2023-05-29T00:54:09;1.20;;;1.20;;
28086;SDS011;15392;48.912;8.380;2023-05-29T00:56:43;1.42;;;1.40;;
28086;SDS011;15392;48.912;8.380;2023-05-29T00:59:10;1.50;;;1.40;;
28086;SDS011;15392;48.912;8.380;2023-05-29T01:01:37;1.83;;;1.70;;
28086;SDS011;15392;48.912;8.380;2023-05-29T01:04:04;1.67;;;1.58;;
28086;SDS011;15392;48.912;8.380;2023-05-29T01:06:35;1.73;;;1.67;;
28086;SDS011;15392;48.912;8.380;2023-05-29T01:09:01;1.20;;;1.20;;
28086;SDS011;15392;48.912;8.380;2023-05-29T01:14:11;1.70;;;1.60;;
28086;SDS011;15392;48.912;8.380;2023-05-29T01:17:00;1.30;;;1.20;;
28086;SDS011;15392;48.912;8.380;2023-05-29T01:20:03;1.48;;;1.38;;
28086;SDS011;15392;48.912;8.380;2023-05-29T01:31:11;1.10;;;1.10;;
28086;SDS011;15392;48.912;8.380;2023-05-29T01:33:40;1.38;;;1.38;;
28086;SDS011;15392;48.912;8.380;2023-05-29T01:36:09;1.10;;;1.10;;
28086;SDS011;15392;48.912;8.380;2023-05-29T01:38:36;1.30;;;1.30;;
28086;SDS011;15392;48.912;8.380;2023-05-29T01:41:02;1.02;;;1.02;;
28086;SDS011;15392;48.912;8.380;2023-05-29T01:43:29;1.10;;;1.10;;
28086;SDS011;15392;48.912;8.380;2023-05-29T01:45:55;1.00;;;1.00;;
28086;SDS011;15392;48.912;8.380;2023-05-29T01:48:22;1.00;;;1.00;;
28086;SDS011;15392;48.912;8.380;2023-05-29T01:50:49;1.00;;;1.00;;
28086;SDS011;15392;48.912;8.380;2023-05-29T01:53:15;0.88;;;0.88;;
28086;SDS011;15392;48.912;8.380;2023-05-29T01:55:41;1.10;;;1.10;;
28086;SDS011;15392;48.912;8.380;2023-05-29T01:58:07;1.00;;;1.00;;
28086;SDS011;15392;48.912;8.380;2023-05-29T02:00:33;1.00;;;1.00;;
28086;SDS011;15392;48.912;8.380;2023-05-29T02:03:00;0.77;;;0.77;;
28086;SDS011;15392;48.912;8.380;2023-05-29T02:05:27;0.90;;;0.90;;
28086;SDS011;15392;48.912;8.380;2023-05-29T02:07:52;0.85;;;0.85;;
28086;SDS011;15392;48.912;8.380;2023-05-29T02:10:18;0.80;;;0.80;;
28086;SDS011;15392;48.912;8.380;2023-05-29T02:12:44;1.10;;;1.10;;
28086;SDS011;15392;48.912;8.380;2023-05-29T02:15:09;1.00;;;1.00;;
28086;SDS011;15392;48.912;8.380;2023-05-29T02:17:36;1.10;;;1.10;;
28086;SDS011;15392;48.912;8.380;2023-05-29T02:20:02;1.02;;;1.02;;
28086;SDS011;15392;48.912;8.380;2023-05-29T02:22:29;0.80;;;0.80;;
28086;SDS011;15392;48.912;8.380;2023-05-29T02:24:55;1.17;;;0.85;;
28086;SDS011;15392;48.912;8.380;2023-05-29T02:27:20;1.10;;;1.10;;
28086;SDS011;15392;48.912;8.380;2023-05-29T02:29:46;1.00;;;1.00;;
28086;SDS011;15392;48.912;8.380;2023-05-29T02:32:12;0.73;;;0.73;;
28086;SDS011;15392;48.912;8.380;2023-05-29T02:34:37;1.05;;;1.05;;
28086;SDS011;15392;48.912;8.380;2023-05-29T02:37:03;0.80;;;0.80;;
28086;SDS011;15392;48.912;8.380;2023-05-29T02:39:29;0.90;;;0.90;;
28086;SDS011;15392;48.912;8.380;2023-05-29T02:41:55;0.88;;;0.88;;
28086;SDS011;15392;48.912;8.380;2023-05-29T02:44:20;0.93;;;0.93;;
28086;SDS011;15392;48.912;8.380;2023-05-29T02:46:46;1.00;;;1.00;;
28086;SDS011;15392;48.912;8.380;2023-05-29T02:49:12;1.00;;;1.00;;
28086;SDS011;15392;48.912;8.380;2023-05-29T02:51:37;0.93;;;0.93;;
28086;SDS011;15392;48.912;8.380;2023-05-29T02:54:03;1.10;;;1.10;;
28086;SDS011;15392;48.912;8.380;2023-05-29T02:56:29;1.00;;;1.00;;
28086;SDS011;15392;48.912;8.380;2023-05-29T02:58:55;0.90;;;0.90;;
28086;SDS011;15392;48.912;8.380;2023-05-29T03:01:21;1.00;;;1.00;;
28086;SDS011;15392;48.912;8.380;2023-05-29T03:03:47;1.00;;;1.00;;
28086;SDS011;15392;48.912;8.380;2023-05-29T03:06:12;1.00;;;1.00;;
28086;SDS011;15392;48.912;8.380;2023-05-29T03:08:38;1.20;;;1.20;;
28086;SDS011;15392;48.912;8.380;2023-05-29T03:11:06;1.23;;;1.23;;
28086;SDS011;15392;48.912;8.380;2023-05-29T03:13:36;0.82;;;0.82;;
28086;SDS011;15392;48.912;8.380;2023-05-29T03:16:02;1.20;;;1.20;;
28086;SDS011;15392;48.912;8.380;2023-05-29T03:18:28;1.00;;;1.00;;
28086;SDS011;15392;48.912;8.380;2023-05-29T03:20:54;1.00;;;1.00;;
28086;SDS011;15392;48.912;8.380;2023-05-29T03:23:20;0.90;;;0.90;;
28086;SDS011;15392;48.912;8.380;2023-05-29T03:25:46;0.85;;;0.85;;
28086;SDS011;15392;48.912;8.380;2023-05-29T03:28:12;1.10;;;1.10;;
28086;SDS011;15392;48.912;8.380;2023-05-29T03:30:38;0.82;;;0.82;;
28086;SDS011;15392;48.912;8.380;2023-05-29T03:33:04;0.90;;;0.90;;
28086;SDS011;15392;48.912;8.380;2023-05-29T03:35:29;1.08;;;1.08;;
28086;SDS011;15392;48.912;8.380;2023-05-29T03:37:55;0.93;;;0.93;;
28086;SDS011;15392;48.912;8.380;2023-05-29T03:40:21;0.98;;;0.98;;
28086;SDS011;15392;48.912;8.380;2023-05-29T03:42:47;1.08;;;1.08;;
28086;SDS011;15392;48.912;8.380;2023-05-29T03:45:12;0.90;;;0.90;;
28086;SDS011;15392;48.912;8.380;2023-05-29T03:47:38;0.98;;;0.98;;
28086;SDS011;15392;48.912;8.380;2023-05-29T03:50:04;0.90;;;0.90;;
28086;SDS011;15392;48.912;8.380;2023-05-29T03:52:30;1.00;;;1.00;;
28086;SDS011;15392;48.912;8.380;2023-05-29T03:54:56;1.00;;;1.00;;
28086;SDS011;15392;48.912;8.380;2023-05-29T03:57:22;1.30;;;1.30;;
28086;SDS011;15392;48.912;8.380;2023-05-29T03:59:47;1.00;;;1.00;;
28086;SDS011;15392;48.912;8.380;2023-05-29T04:02:13;1.00;;;1.00;;
28086;SDS011;15392;48.912;8.380;2023-05-29T04:04:39;1.15;;;1.15;;
28086;SDS011;15392;48.912;8.380;2023-05-29T04:07:04;0.90;;;0.90;;
28086;SDS011;15392;48.912;8.380;2023-05-29T04:09:32;0.90;;;0.90;;
28086;SDS011;15392;48.912;8.380;2023-05-29T04:11:59;0.90;;;0.90;;
28086;SDS011;15392;48.912;8.380;2023-05-29T04:14:27;1.15;;;1.15;;
28086;SDS011;15392;48.912;8.380;2023-05-29T04:16:53;0.80;;;0.80;;
28086;SDS011;15392;48.912;8.380;2023-05-29T04:19:19;0.90;;;0.90;;
28086;SDS011;15392;48.912;8.380;2023-05-29T04:21:46;0.77;;;0.77;;
28086;SDS011;15392;48.912;8.380;2023-05-29T04:24:13;0.90;;;0.90;;
28086;SDS011;15392;48.912;8.380;2023-05-29T04:26:39;1.00;;;1.00;;
28086;SDS011;15392;48.912;8.380;2023-05-29T04:29:06;0.80;;;0.80;;
28086;SDS011;15392;48.912;8.380;2023-05-29T04:31:33;1.00;;;1.00;;
28086;SDS011;15392;48.912;8.380;2023-05-29T04:34:01;0.90;;;0.90;;
28086;SDS011;15392;48.912;8.380;2023-05-29T04:36:29;0.90;;;0.90;;
28086;SDS011;15392;48.912;8.380;2023-05-29T04:38:57;0.98;;;0.98;;
28086;SDS011;15392;48.912;8.380;2023-05-29T04:41:24;0.60;;;0.60;;
28086;SDS011;15392;48.912;8.380;2023-05-29T04:43:57;0.68;;;0.68;;
28086;SDS011;15392;48.912;8.380;2023-05-29T04:46:23;0.80;;;0.80;;
28086;SDS011;15392;48.912;8.380;2023-05-29T04:48:50;1.00;;;1.00;;
28086;SDS011;15392;48.912;8.380;2023-05-29T04:51:20;1.00;;;1.00;;
28086;SDS011;15392;48.912;8.380;2023-05-29T04:53:46;1.00;;;1.00;;
28086;SDS011;15392;48.912;8.380;2023-05-29T04:56:13;1.17;;;1.00;;
28086;SDS011;15392;48.912;8.380;2023-05-29T04:58:40;0.93;;;0.93;;
28086;SDS011;15392;48.912;8.380;2023-05-29T05:01:06;1.00;;;0.85;;
28086;SDS011;15392;48.912;8.380;2023-05-29T05:03:34;1.05;;;0.90;;
28086;SDS011;15392;48.912;8.380;2023-05-29T05:06:01;0.98;;;0.98;;
28086;SDS011;15392;48.912;8.380;2023-05-29T05:08:32;0.77;;;0.77;;
28086;SDS011;15392;48.912;8.380;2023-05-29T05:11:00;0.73;;;0.73;;
28086;SDS011;15392;48.912;8.380;2023-05-29T05:13:26;0.80;;;0.80;;
28086;SDS011;15392;48.912;8.380;2023-05-29T05:15:52;0.90;;;0.90;;
28086;SDS011;15392;48.912;8.380;2023-05-29T05:18:19;0.85;;;0.85;;
28086;SDS011;15392;48.912;8.380;2023-05-29T05:20:45;0.77;;;0.77;;
28086;SDS011;15392;48.912;8.380;2023-05-29T05:23:11;0.70;;;0.70;;
28086;SDS011;15392;48.912;8.380;2023-05-29T05:25:37;0.70;;;0.70;;
28086;SDS011;15392;48.912;8.380;2023-05-29T05:28:04;0.90;;;0.90;;
28086;SDS011;15392;48.912;8.380;2023-05-29T05:30:30;0.70;;;0.70;;
28086;SDS011;15392;48.912;8.380;2023-05-29T05:32:56;0.80;;;0.80;;
28086;SDS011;15392;48.912;8.380;2023-05-29T05:35:22;0.63;;;0.63;;
28086;SDS011;15392;48.912;8.380;2023-05-29T05:37:49;0.70;;;0.70;;
28086;SDS011;15392;48.912;8.380;2023-05-29T05:40:14;0.70;;;0.70;;
28086;SDS011;15392;48.912;8.380;2023-05-29T05:42:40;0.90;;;0.90;;
28086;SDS011;15392;48.912;8.380;2023-05-29T05:45:07;0.90;;;0.90;;
28086;SDS011;15392;48.912;8.380;2023-05-29T05:47:34;0.80;;;0.80;;
28086;SDS011;15392;48.912;8.380;2023-05-29T05:50:00;0.77;;;0.77;;
28086;SDS011;15392;48.912;8.380;2023-05-29T05:52:26;1.00;;;1.00;;
28086;SDS011;15392;48.912;8.380;2023-05-29T05:54:56;1.00;;;1.00;;
28086;SDS011;15392;48.912;8.380;2023-05-29T05:57:22;0.70;;;0.70;;
28086;SDS011;15392;48.912;8.380;2023-05-29T05:59:47;0.77;;;0.77;;
28086;SDS011;15392;48.912;8.380;2023-05-29T06:02:14;0.60;;;0.60;;
28086;SDS011;15392;48.912;8.380;2023-05-29T06:04:40;0.75;;;0.75;;
28086;SDS011;15392;48.912;8.380;2023-05-29T06:07:07;0.70;;;0.70;;
28086;SDS011;15392;48.912;8.380;2023-05-29T06:09:33;0.85;;;0.65;;
28086;SDS011;15392;48.912;8.380;2023-05-29T06:11:59;0.70;;;0.70;;
28086;SDS011;15392;48.912;8.380;2023-05-29T06:14:25;0.77;;;0.77;;
28086;SDS011;15392;48.912;8.380;2023-05-29T06:16:51;0.77;;;0.77;;
28086;SDS011;15392;48.912;8.380;2023-05-29T06:19:16;0.63;;;0.63;;
28086;SDS011;15392;48.912;8.380;2023-05-29T06:21:42;0.80;;;0.80;;
28086;SDS011;15392;48.912;8.380;2023-05-29T06:24:08;0.88;;;0.88;;
28086;SDS011;15392;48.912;8.380;2023-05-29T06:26:34;0.90;;;0.90;;
28086;SDS011;15392;48.912;8.380;2023-05-29T06:29:01;0.80;;;0.80;;
28086;SDS011;15392;48.912;8.380;2023-05-29T06:31:27;0.82;;;0.82;;
28086;SDS011;15392;48.912;8.380;2023-05-29T06:33:53;0.63;;;0.63;;
28086;SDS011;15392;48.912;8.380;2023-05-29T06:36:19;0.80;;;0.80;;
28086;SDS011;15392;48.912;8.380;2023-05-29T06:38:46;0.73;;;0.73;;
28086;SDS011;15392;48.912;8.380;2023-05-29T06:41:15;0.90;;;0.90;;
28086;SDS011;15392;48.912;8.380;2023-05-29T06:43:41;0.80;;;0.80;;
28086;SDS011;15392;48.912;8.380;2023-05-29T06:46:07;0.70;;;0.70;;
28086;SDS011;15392;48.912;8.380;2023-05-29T06:48:33;0.90;;;0.90;;
28086;SDS011;15392;48.912;8.380;2023-05-29T06:51:01;0.70;;;0.70;;
28086;SDS011;15392;48.912;8.380;2023-05-29T06:53:40;0.63;;;0.63;;
28086;SDS011;15392;48.912;8.380;2023-05-29T06:56:07;0.70;;;0.70;;
28086;SDS011;15392;48.912;8.380;2023-05-29T06:58:33;0.60;;;0.60;;
28086;SDS011;15392;48.912;8.380;2023-05-29T07:00:59;0.57;;;0.57;;
28086;SDS011;15392;48.912;8.380;2023-05-29T07:03:25;0.70;;;0.70;;
28086;SDS011;15392;48.912;8.380;2023-05-29T07:05:52;0.88;;;0.88;;
28086;SDS011;15392;48.912;8.380;2023-05-29T07:08:18;0.80;;;0.80;;
28086;SDS011;15392;48.912;8.380;2023-05-29T07:10:44;0.80;;;0.80;;
28086;SDS011;15392;48.912;8.380;2023-05-29T07:13:17;0.80;;;0.80;;
28086;SDS011;15392;48.912;8.380;2023-05-29T07:15:43;0.75;;;0.75;;
28086;SDS011;15392;48.912;8.380;2023-05-29T07:18:10;0.60;;;0.60;;
28086;SDS011;15392;48.912;8.380;2023-05-29T07:20:36;0.60;;;0.60;;
28086;SDS011;15392;48.912;8.380;2023-05-29T07:23:02;0.80;;;0.80;;
28086;SDS011;15392;48.912;8.380;2023-05-29T07:25:28;0.60;;;0.60;;
28086;SDS011;15392;48.912;8.380;2023-05-29T07:27:55;0.70;;;0.70;;
28086;SDS011;15392;48.912;8.380;2023-05-29T07:30:21;0.90;;;0.90;;
28086;SDS011;15392;48.912;8.380;2023-05-29T07:32:47;0.80;;;0.80;;
28086;SDS011;15392;48.912;8.380;2023-05-29T07:35:13;0.82;;;0.82;;
28086;SDS011;15392;48.912;8.380;2023-05-29T07:37:39;0.70;;;0.70;;
28086;SDS011;15392;48.912;8.380;2023-05-29T07:40:05;0.70;;;0.70;;
28086;SDS011;15392;48.912;8.380;2023-05-29T07:42:32;0.65;;;0.65;;
28086;SDS011;15392;48.912;8.380;2023-05-29T07:44:59;0.70;;;0.70;;
28086;SDS011;15392;48.912;8.380;2023-05-29T07:47:25;0.50;;;0.50;;
28086;SDS011;15392;48.912;8.380;2023-05-29T07:49:51;0.80;;;0.80;;
28086;SDS011;15392;48.912;8.380;2023-05-29T07:52:17;0.52;;;0.52;;
28086;SDS011;15392;48.912;8.380;2023-05-29T07:54:43;0.88;;;0.88;;
28086;SDS011;15392;48.912;8.380;2023-05-29T07:57:10;0.68;;;0.68;;
28086;SDS011;15392;48.912;8.380;2023-05-29T07:59:36;0.60;;;0.60;;
28086;SDS011;15392;48.912;8.380;2023-05-29T08:02:06;0.60;;;0.60;;
28086;SDS011;15392;48.912;8.380;2023-05-29T08:04:33;0.60;;;0.60;;
28086;SDS011;15392;48.912;8.380;2023-05-29T08:06:59;0.55;;;0.55;;
28086;SDS011;15392;48.912;8.380;2023-05-29T08:09:27;0.60;;;0.60;;
28086;SDS011;15392;48.912;8.380;2023-05-29T08:11:52;0.73;;;0.73;;
28086;SDS011;15392;48.912;8.380;2023-05-29T08:14:18;0.60;;;0.60;;
28086;SDS011;15392;48.912;8.380;2023-05-29T08:16:44;0.77;;;0.77;;
28086;SDS011;15392;48.912;8.380;2023-05-29T08:19:10;0.70;;;0.70;;
28086;SDS011;15392;48.912;8.380;2023-05-29T08:21:36;0.70;;;0.70;;
28086;SDS011;15392;48.912;8.380;2023-05-29T08:24:03;0.73;;;0.73;;
28086;SDS011;15392;48.912;8.380;2023-05-29T08:26:32;0.70;;;0.70;;
28086;SDS011;15392;48.912;8.380;2023-05-29T08:28:58;0.60;;;0.60;;
28086;SDS011;15392;48.912;8.380;2023-05-29T08:31:24;0.70;;;0.70;;
28086;SDS011;15392;48.912;8.380;2023-05-29T08:33:50;0.60;;;0.60;;
28086;SDS011;15392;48.912;8.380;2023-05-29T08:36:17;0.68;;;0.68;;
28086;SDS011;15392;48.912;8.380;2023-05-29T08:38:45;0.77;;;0.77;;
28086;SDS011;15392;48.912;8.380;2023-05-29T08:41:37;0.80;;;0.63;;
28086;SDS011;15392;48.912;8.380;2023-05-29T08:44:12;0.60;;;0.60;;
28086;SDS011;15392;48.912;8.380;2023-05-29T08:46:40;0.60;;;0.60;;
28086;SDS011;15392;48.912;8.380;2023-05-29T08:49:05;0.63;;;0.63;;
28086;SDS011;15392;48.912;8.380;2023-05-29T08:51:36;0.73;;;0.73;;
28086;SDS011;15392;48.912;8.380;2023-05-29T08:54:08;0.60;;;0.60;;
28086;SDS011;15392;48.912;8.380;2023-05-29T08:56:36;0.80;;;0.80;;
28086;SDS011;15392;48.912;8.380;2023-05-29T08:59:01;0.65;;;0.65;;
28086;SDS011;15392;48.912;8.380;2023-05-29T09:01:27;0.68;;;0.68;;
28086;SDS011;15392;48.912;8.380;2023-05-29T09:03:55;0.60;;;0.60;;
28086;SDS011;15392;48.912;8.380;2023-05-29T09:06:22;0.77;;;0.77;;
28086;SDS011;15392;48.912;8.380;2023-05-29T09:08:51;0.70;;;0.70;;
28086;SDS011;15392;48.912;8.380;2023-05-29T09:11:18;0.80;;;0.80;;
28086;SDS011;15392;48.912;8.380;2023-05-29T09:13:46;0.73;;;0.73;;
28086;SDS011;15392;48.912;8.380;2023-05-29T09:16:12;0.60;;;0.60;;
28086;SDS011;15392;48.912;8.380;2023-05-29T09:18:37;0.88;;;0.88;;
28086;SDS011;15392;48.912;8.380;2023-05-29T09:21:06;0.60;;;0.60;;
28086;SDS011;15392;48.912;8.380;2023-05-29T09:23:35;0.50;;;0.50;;
28086;SDS011;15392;48.912;8.380;2023-05-29T09:26:02;0.68;;;0.68;;
28086;SDS011;15392;48.912;8.380;2023-05-29T09:28:30;0.60;;;0.60;;
28086;SDS011;15392;48.912;8.380;2023-05-29T09:30:58;0.60;;;0.60;;
28086;SDS011;15392;48.912;8.380;2023-05-29T09:33:24;0.60;;;0.60;;
28086;SDS011;15392;48.912;8.380;2023-05-29T09:35:51;0.60;;;0.60;;
28086;SDS011;15392;48.912;8.380;2023-05-29T09:38:17;0.70;;;0.70;;
28086;SDS011;15392;48.912;8.380;2023-05-29T09:40:45;0.68;;;0.68;;
28086;SDS011;15392;48.912;8.380;2023-05-29T09:43:15;0.82;;;0.82;;
28086;SDS011;15392;48.912;8.380;2023-05-29T09:45:44;0.80;;;0.80;;
28086;SDS011;15392;48.912;8.380;2023-05-29T09:48:18;0.70;;;0.70;;
28086;SDS011;15392;48.912;8.380;2023-05-29T09:50:48;0.82;;;0.82;;
28086;SDS011;15392;48.912;8.380;2023-05-29T09:55:49;0.60;;;0.60;;
28086;SDS011;15392;48.912;8.380;2023-05-29T09:58:23;0.70;;;0.70;;
28086;SDS011;15392;48.912;8.380;2023-05-29T10:00:50;0.75;;;0.75;;
28086;SDS011;15392;48.912;8.380;2023-05-29T10:03:17;1.08;;;0.88;;
28086;SDS011;15392;48.912;8.380;2023-05-29T10:05:49;0.63;;;0.63;;
28086;SDS011;15392;48.912;8.380;2023-05-29T10:08:17;0.80;;;0.80;;
28086;SDS011;15392;48.912;8.380;2023-05-29T10:10:51;0.80;;;0.80;;
28086;SDS011;15392;48.912;8.380;2023-05-29T10:13:25;0.60;;;0.60;;
28086;SDS011;15392;48.912;8.380;2023-05-29T10:15:56;0.80;;;0.80;;
28086;SDS011;15392;48.912;8.380;2023-05-29T10:18:33;0.60;;;0.60;;
28086;SDS011;15392;48.912;8.380;2023-05-29T10:21:03;0.50;;;0.50;;
28086;SDS011;15392;48.912;8.380;2023-05-29T10:23:31;0.60;;;0.60;;
28086;SDS011;15392;48.912;8.380;2023-05-29T10:26:17;0.68;;;0.68;;
28086;SDS011;15392;48.912;8.380;2023-05-29T10:29:15;0.70;;;0.70;;
28086;SDS011;15392;48.912;8.380;2023-05-29T10:39:52;0.65;;;0.65;;
28086;SDS011;15392;48.912;8.380;2023-05-29T10:50:40;0.60;;;0.60;;
28086;SDS011;15392;48.912;8.380;2023-05-29T10:53:10;0.80;;;0.80;;
28086;SDS011;15392;48.912;8.380;2023-05-29T10:55:48;0.75;;;0.75;;
28086;SDS011;15392;48.912;8.380;2023-05-29T11:00:51;0.70;;;0.70;;
28086;SDS011;15392;48.912;8.380;2023-05-29T11:13:41;0.70;;;0.70;;
28086;SDS011;15392;48.912;8.380;2023-05-29T11:18:51;0.68;;;0.68;;
28086;SDS011;15392;48.912;8.380;2023-05-29T11:24:26;0.60;;;0.60;;
28086;SDS011;15392;48.912;8.380;2023-05-29T11:26:57;0.70;;;0.70;;
28086;SDS011;15392;48.912;8.380;2023-05-29T11:29:29;0.80;;;0.80;;
28086;SDS011;15392;48.912;8.380;2023-05-29T11:32:00;0.77;;;0.77;;
28086;SDS011;15392;48.912;8.380;2023-05-29T11:34:35;0.77;;;0.77;;
28086;SDS011;15392;48.912;8.380;2023-05-29T11:37:06;0.80;;;0.80;;
28086;SDS011;15392;48.912;8.380;2023-05-29T11:39:35;0.70;;;0.70;;
28086;SDS011;15392;48.912;8.380;2023-05-29T11:42:02;0.50;;;0.50;;
28086;SDS011;15392;48.912;8.380;2023-05-29T11:45:24;0.70;;;0.70;;
28086;SDS011;15392;48.912;8.380;2023-05-29T11:48:31;0.60;;;0.60;;
28086;SDS011;15392;48.912;8.380;2023-05-29T11:51:37;0.70;;;0.70;;
28086;SDS011;15392;48.912;8.380;2023-05-29T11:54:47;0.40;;;0.40;;
28086;SDS011;15392;48.912;8.380;2023-05-29T11:57:59;0.65;;;0.65;;
28086;SDS011;15392;48.912;8.380;2023-05-29T12:01:07;0.50;;;0.50;;
28086;SDS011;15392;48.912;8.380;2023-05-29T12:04:14;0.57;;;0.57;;
28086;SDS011;15392;48.912;8.380;2023-05-29T12:07:21;0.63;;;0.63;;
28086;SDS011;15392;48.912;8.380;2023-05-29T12:10:28;0.63;;;0.63;;
28086;SDS011;15392;48.912;8.380;2023-05-29T12:13:34;0.60;;;0.60;;
28086;SDS011;15392;48.912;8.380;2023-05-29T12:16:41;0.50;;;0.50;;
28086;SDS011;15392;48.912;8.380;2023-05-29T12:19:47;0.52;;;0.52;;
28086;SDS011;15392;48.912;8.380;2023-05-29T12:22:58;0.60;;;0.60;;
28086;SDS011;15392;48.912;8.380;2023-05-29T12:26:07;0.50;;;0.50;;
28086;SDS011;15392;48.912;8.380;2023-05-29T12:29:14;0.60;;;0.60;;
28086;SDS011;15392;48.912;8.380;2023-05-29T12:32:21;0.60;;;0.60;;
28086;SDS011;15392;48.912;8.380;2023-05-29T12:35:28;0.60;;;0.60;;
28086;SDS011;15392;48.912;8.380;2023-05-29T12:39:08;0.60;;;0.60;;
28086;SDS011;15392;48.912;8.380;2023-05-29T12:42:14;0.60;;;0.60;;
28086;SDS011;15392;48.912;8.380;2023-05-29T12:45:23;0.60;;;0.60;;
28086;SDS011;15392;48.912;8.380;2023-05-29T12:48:34;0.63;;;0.63;;
28086;SDS011;15392;48.912;8.380;2023-05-29T12:51:41;0.65;;;0.65;;
28086;SDS011;15392;48.912;8.380;2023-05-29T12:54:13;0.40;;;0.40;;
28086;SDS011;15392;48.912;8.380;2023-05-29T12:56:40;0.70;;;0.52;;
28086;SDS011;15392;48.912;8.380;2023-05-29T12:59:06;0.50;;;0.50;;
28086;SDS011;15392;48.912;8.380;2023-05-29T13:01:36;0.43;;;0.43;;
28086;SDS011;15392;48.912;8.380;2023-05-29T13:06:32;0.55;;;0.55;;
28086;SDS011;15392;48.912;8.380;2023-05-29T13:09:02;0.50;;;0.50;;
28086;SDS011;15392;48.912;8.380;2023-05-29T13:11:28;0.47;;;0.47;;
28086;SDS011;15392;48.912;8.380;2023-05-29T13:13:54;0.60;;;0.40;;
28086;SDS011;15392;48.912;8.380;2023-05-29T13:16:20;0.50;;;0.50;;
28086;SDS011;15392;48.912;8.380;2023-05-29T13:18:46;0.47;;;0.47;;
28086;SDS011;15392;48.912;8.380;2023-05-29T13:21:12;0.43;;;0.43;;
28086;SDS011;15392;48.912;8.380;2023-05-29T13:23:38;0.60;;;0.60;;
28086;SDS011;15392;48.912;8.380;2023-05-29T13:26:04;0.60;;;0.60;;
28086;SDS011;15392;48.912;8.380;2023-05-29T13:28:30;0.57;;;0.57;;
28086;SDS011;15392;48.912;8.380;2023-05-29T13:30:56;0.50;;;0.50;;
28086;SDS011;15392;48.912;8.380;2023-05-29T13:33:22;0.60;;;0.60;;
28086;SDS011;15392;48.912;8.380;2023-05-29T13:35:48;0.57;;;0.57;;
28086;SDS011;15392;48.912;8.380;2023-05-29T13:38:14;0.70;;;0.70;;
28086;SDS011;15392;48.912;8.380;2023-05-29T13:40:40;0.57;;;0.57;;
28086;SDS011;15392;48.912;8.380;2023-05-29T13:43:08;0.60;;;0.60;;
28086;SDS011;15392;48.912;8.380;2023-05-29T13:45:34;0.60;;;0.60;;
28086;SDS011;15392;48.912;8.380;2023-05-29T13:48:00;0.40;;;0.40;;
28086;SDS011;15392;48.912;8.380;2023-05-29T13:50:26;0.60;;;0.60;;
28086;SDS011;15392;48.912;8.380;2023-05-29T13:52:52;0.60;;;0.60;;
28086;SDS011;15392;48.912;8.380;2023-05-29T13:55:18;0.50;;;0.50;;
28086;SDS011;15392;48.912;8.380;2023-05-29T13:57:44;1.00;;;0.70;;
28086;SDS011;15392;48.912;8.380;2023-05-29T14:00:10;0.50;;;0.50;;
28086;SDS011;15392;48.912;8.380;2023-05-29T14:02:37;0.60;;;0.60;;
28086;SDS011;15392;48.912;8.380;2023-05-29T14:05:18;0.50;;;0.50;;
28086;SDS011;15392;48.912;8.380;2023-05-29T14:07:44;0.40;;;0.40;;
28086;SDS011;15392;48.912;8.380;2023-05-29T14:10:10;0.60;;;0.60;;
28086;SDS011;15392;48.912;8.380;2023-05-29T14:12:36;0.60;;;0.60;;
28086;SDS011;15392;48.912;8.380;2023-05-29T14:15:02;0.40;;;0.40;;
28086;SDS011;15392;48.912;8.380;2023-05-29T14:17:28;0.55;;;0.55;;
28086;SDS011;15392;48.912;8.380;2023-05-29T14:19:54;0.40;;;0.40;;
28086;SDS011;15392;48.912;8.380;2023-05-29T14:22:20;0.68;;;0.68;;
28086;SDS011;15392;48.912;8.380;2023-05-29T14:24:46;0.47;;;0.45;;
28086;SDS011;15392;48.912;8.380;2023-05-29T14:27:12;0.50;;;0.50;;
28086;SDS011;15392;48.912;8.380;2023-05-29T14:29:37;0.57;;;0.57;;
28086;SDS011;15392;48.912;8.380;2023-05-29T14:32:04;0.50;;;0.50;;
28086;SDS011;15392;48.912;8.380;2023-05-29T14:34:30;0.63;;;0.63;;
28086;SDS011;15392;48.912;8.380;2023-05-29T14:36:56;0.50;;;0.50;;
28086;SDS011;15392;48.912;8.380;2023-05-29T14:39:21;0.40;;;0.40;;
28086;SDS011;15392;48.912;8.380;2023-05-29T14:41:47;0.60;;;0.60;;
28086;SDS011;15392;48.912;8.380;2023-05-29T14:44:13;0.40;;;0.40;;
28086;SDS011;15392;48.912;8.380;2023-05-29T14:46:39;0.52;;;0.52;;
28086;SDS011;15392;48.912;8.380;2023-05-29T14:49:05;0.50;;;0.50;;
28086;SDS011;15392;48.912;8.380;2023-05-29T14:51:31;0.47;;;0.47;;
28086;SDS011;15392;48.912;8.380;2023-05-29T14:53:58;0.60;;;0.60;;
28086;SDS011;15392;48.912;8.380;2023-05-29T14:56:23;0.50;;;0.50;;
28086;SDS011;15392;48.912;8.380;2023-05-29T14:58:49;0.50;;;0.50;;
28086;SDS011;15392;48.912;8.380;2023-05-29T15:01:16;0.50;;;0.50;;
28086;SDS011;15392;48.912;8.380;2023-05-29T15:03:42;0.45;;;0.45;;
28086;SDS011;15392;48.912;8.380;2023-05-29T15:06:09;0.60;;;0.60;;
28086;SDS011;15392;48.912;8.380;2023-05-29T15:08:37;0.30;;;0.30;;
28086;SDS011;15392;48.912;8.380;2023-05-29T15:11:05;0.60;;;0.60;;
28086;SDS011;15392;48.912;8.380;2023-05-29T15:13:31;0.40;;;0.40;;
28086;SDS011;15392;48.912;8.380;2023-05-29T15:15:57;0.47;;;0.47;;
28086;SDS011;15392;48.912;8.380;2023-05-29T15:18:27;0.43;;;0.43;;
28086;SDS011;15392;48.912;8.380;2023-05-29T15:20:54;0.40;;;0.40;;
28086;SDS011;15392;48.912;8.380;2023-05-29T15:23:20;0.40;;;0.40;;
28086;SDS011;15392;48.912;8.380;2023-05-29T15:25:49;0.47;;;0.47;;
28086;SDS011;15392;48.912;8.380;2023-05-29T15:28:15;0.43;;;0.43;;
28086;SDS011;15392;48.912;8.380;2023-05-29T15:30:42;0.57;;;0.57;;
28086;SDS011;15392;48.912;8.380;2023-05-29T15:33:08;0.40;;;0.40;;
28086;SDS011;15392;48.912;8.380;2023-05-29T15:35:36;0.50;;;0.50;;
28086;SDS011;15392;48.912;8.380;2023-05-29T15:38:07;0.40;;;0.40;;
28086;SDS011;15392;48.912;8.380;2023-05-29T15:40:37;0.40;;;0.40;;
28086;SDS011;15392;48.912;8.380;2023-05-29T15:43:03;0.35;;;0.35;;
28086;SDS011;15392;48.912;8.380;2023-05-29T15:45:30;0.43;;;0.43;;
28086;SDS011;15392;48.912;8.380;2023-05-29T15:47:56;0.47;;;0.47;;
28086;SDS011;15392;48.912;8.380;2023-05-29T15:50:21;0.43;;;0.43;;
28086;SDS011;15392;48.912;8.380;2023-05-29T15:52:47;0.30;;;0.30;;
28086;SDS011;15392;48.912;8.380;2023-05-29T15:55:14;0.50;;;0.50;;
28086;SDS011;15392;48.912;8.380;2023-05-29T15:57:41;0.40;;;0.40;;